Time;durP1;ratioP1;P1;durP2;ratioP2;P2;SDS_P1;SDS_P2;PMS_P1;PMS_P2;Temp;Humidity;BMP_temperature;BMP_pressure;BME280_temperature;BME280_humidity;BME280_pressure;Samples;Min_cycle;Max_cycle;Signal;HPM_P1;HPM_P2
2023/10/13 00:01:51;;;;;;;14.07;7.03;;;;;;;14.94;100.00;100482.88;4971471;28;20291;-72
2023/10/13 00:04:22;;;;;;;14.23;7.37;;;;;;;14.92;100.00;100476.66;4971222;28;20283;-72
2023/10/13 00:06:50;;;;;;;14.63;7.60;;;;;;;15.08;100.00;100473.03;4971405;28;20591;-71
2023/10/13 00:09:16;;;;;;;18.30;8.10;;;;;;;15.14;100.00;100481.00;4963196;28;20209;-72
2023/10/13 00:11:46;;;;;;;17.77;7.57;;;;;;;15.17;100.00;100477.44;4970908;28;20304;-71
2023/10/13 00:14:16;;;;;;;20.10;7.43;;;;;;;15.10;100.00;100471.25;4971315;28;20197;-71
2023/10/13 00:19:46;;;;;;;13.57;7.67;;;;;;;15.04;100.00;100466.81;4970597;28;20500;-72
2023/10/13 00:22:19;;;;;;;12.33;7.57;;;;;;;15.02;100.00;100465.94;4970589;28;20729;-72
2023/10/13 00:24:46;;;;;;;11.97;7.30;;;;;;;15.06;100.00;100466.81;4971198;28;20225;-72
2023/10/13 00:27:30;;;;;;;13.80;7.93;;;;;;;15.10;100.00;100465.00;4959481;28;20202;-72
2023/10/13 00:30:16;;;;;;;15.03;8.50;;;;;;;15.21;100.00;100469.44;4966643;28;20710;-72
2023/10/13 00:32:54;;;;;;;23.00;8.70;;;;;;;15.27;100.00;100463.19;4964628;28;20205;-71
2023/10/13 00:35:36;;;;;;;15.00;8.20;;;;;;;15.18;100.00;100460.53;4968775;28;20288;-71
2023/10/13 00:38:04;;;;;;;14.90;8.53;;;;;;;15.16;100.00;100457.88;4970497;28;20312;-72
2023/10/13 00:45:54;;;;;;;15.67;8.10;;;;;;;15.12;100.00;100456.13;4964409;28;20233;-72
2023/10/13 00:48:29;;;;;;;14.60;8.40;;;;;;;15.12;100.00;100461.44;4970093;28;20610;-72
2023/10/13 00:50:59;;;;;;;16.77;8.50;;;;;;;15.12;100.00;100461.44;4968265;28;20216;-72
2023/10/13 00:53:25;;;;;;;16.30;8.60;;;;;;;15.13;100.00;100455.22;4970467;28;20213;-72
2023/10/13 00:55:55;;;;;;;17.40;8.50;;;;;;;15.23;100.00;100437.41;4971086;28;20235;-72
2023/10/13 00:58:22;;;;;;;16.20;8.53;;;;;;;15.19;100.00;100440.97;4968734;28;20217;-72
2023/10/13 01:01:17;;;;;;;14.43;8.10;;;;;;;15.18;100.00;100436.53;4969139;28;20728;-72
2023/10/13 01:03:48;;;;;;;15.90;7.70;;;;;;;15.24;100.00;100434.75;4968227;28;20202;-72
2023/10/13 01:06:16;;;;;;;17.13;7.50;;;;;;;15.18;100.00;100436.53;4974731;28;20656;-72
2023/10/13 01:08:50;;;;;;;13.60;7.67;;;;;;;15.14;100.00;100434.75;4973505;28;20205;-72
2023/10/13 01:11:18;;;;;;;13.60;7.47;;;;;;;15.10;100.00;100443.69;4974984;28;20283;-71
2023/10/13 01:13:50;;;;;;;16.13;7.67;;;;;;;15.04;100.00;100439.25;4975086;28;20208;-72
2023/10/13 01:16:21;;;;;;;14.00;7.67;;;;;;;15.06;100.00;100440.13;4964448;28;20217;-72
2023/10/13 01:18:48;;;;;;;12.73;7.17;;;;;;;15.04;100.00;100442.81;4974386;28;20443;-72
2023/10/13 01:21:16;;;;;;;14.17;7.33;;;;;;;15.02;100.00;100447.25;4973014;28;20284;-71
2023/10/13 01:23:47;;;;;;;16.03;7.33;;;;;;;14.98;100.00;100445.50;4966676;28;20198;-71
2023/10/13 01:26:23;;;;;;;14.17;7.87;;;;;;;15.03;100.00;100445.47;4961732;28;20252;-71
2023/10/13 01:28:51;;;;;;;12.43;6.93;;;;;;;14.98;100.00;100447.28;4966759;28;20211;-71
2023/10/13 01:31:30;;;;;;;13.53;7.07;;;;;;;14.99;100.00;100441.06;4973723;28;20198;-71
2023/10/13 01:34:00;;;;;;;16.10;8.10;;;;;;;15.17;100.00;100442.75;4967149;28;20681;-71
2023/10/13 01:36:27;;;;;;;15.33;7.80;;;;;;;15.13;100.00;100439.22;4973595;28;20296;-71
2023/10/13 01:38:54;;;;;;;15.27;8.00;;;;;;;15.18;100.00;100445.41;4972866;28;20216;-72
2023/10/13 01:41:21;;;;;;;15.90;8.27;;;;;;;15.22;100.00;100441.88;4970636;28;20667;-72
2023/10/13 01:43:48;;;;;;;14.13;7.47;;;;;;;15.19;100.00;100449.84;4974293;28;20205;-71
2023/10/13 01:46:19;;;;;;;13.93;7.83;;;;;;;15.17;100.00;100434.75;4973571;28;20233;-71
2023/10/13 01:48:46;;;;;;;12.33;7.07;;;;;;;15.12;100.00;100432.09;4966921;28;20221;-71
2023/10/13 01:51:13;;;;;;;15.63;7.60;;;;;;;15.14;100.00;100430.31;4970691;28;20197;-71
2023/10/13 01:53:43;;;;;;;15.00;8.30;;;;;;;15.14;100.00;100416.09;4973337;28;20240;-71
2023/10/13 01:56:10;;;;;;;13.03;7.70;;;;;;;15.11;100.00;100410.78;4973877;28;20336;-71
2023/10/13 01:58:42;;;;;;;15.27;7.37;;;;;;;15.08;100.00;100408.13;4968733;28;20244;-72
2023/10/13 02:01:10;;;;;;;13.83;6.23;;;;;;;15.04;100.00;100402.81;4973677;28;20228;-71
2023/10/13 02:03:46;;;;;;;12.77;6.40;;;;;;;15.07;100.00;100393.91;4973552;28;20248;-72
2023/10/13 02:06:17;;;;;;;14.73;7.80;;;;;;;15.04;100.00;100392.13;4973608;28;20220;-71
2023/10/13 02:08:47;;;;;;;12.73;6.63;;;;;;;14.99;100.00;100383.28;4958201;28;20198;-72
2023/10/13 02:11:18;;;;;;;14.37;7.20;;;;;;;15.13;100.00;100382.31;4973084;28;20211;-71
2023/10/13 02:13:48;;;;;;;12.97;7.47;;;;;;;15.16;100.00;100385.84;4966293;28;20205;-72
2023/10/13 02:16:21;;;;;;;12.63;7.23;;;;;;;15.21;100.00;100389.41;4973189;28;20225;-72
2023/10/13 02:18:51;;;;;;;17.33;7.93;;;;;;;15.17;100.00;100389.41;4971568;28;20221;-72
2023/10/13 02:21:17;;;;;;;11.73;6.67;;;;;;;15.07;100.00;100390.34;4972680;28;20725;-72
2023/10/13 02:23:45;;;;;;;14.53;7.23;;;;;;;15.01;100.00;100380.59;4973794;28;20233;-72
2023/10/13 02:26:15;;;;;;;12.17;7.40;;;;;;;14.99;100.00;100375.28;4966362;28;20310;-72
2023/10/13 02:28:50;;;;;;;13.83;7.27;;;;;;;14.91;100.00;100374.44;4965302;28;20661;-72
2023/10/13 02:31:19;;;;;;;11.30;6.60;;;;;;;14.83;100.00;100362.03;4971566;28;20205;-72
2023/10/13 02:33:45;;;;;;;13.27;7.00;;;;;;;14.82;100.00;100360.25;4971083;28;20256;-72
2023/10/13 02:36:12;;;;;;;11.43;6.30;;;;;;;14.78;100.00;100358.47;4973098;28;20221;-72
2023/10/13 02:41:25;;;;;;;12.03;6.37;;;;;;;14.76;100.00;100346.91;4972711;28;20591;-71
2023/10/13 02:43:54;;;;;;;10.40;6.03;;;;;;;14.77;100.00;100344.25;4964167;28;20296;-72
2023/10/13 02:46:24;;;;;;;10.07;6.53;;;;;;;14.80;100.00;100338.00;4972423;28;20315;-72
2023/10/13 02:48:54;;;;;;;14.60;6.87;;;;;;;14.82;100.00;100342.47;4972866;28;20197;-72
2023/10/13 02:51:25;;;;;;;14.20;6.70;;;;;;;14.93;100.00;100356.63;4972221;28;20205;-72
2023/10/13 02:53:52;;;;;;;12.13;7.00;;;;;;;14.98;100.00;100351.28;4966900;28;20202;-71
2023/10/13 02:56:22;;;;;;;11.47;6.93;;;;;;;14.87;100.00;100346.00;4972252;28;20304;-71
2023/10/13 02:58:56;;;;;;;14.30;7.53;;;;;;;14.94;100.00;100337.06;4965785;28;20221;-72
2023/10/13 03:01:28;;;;;;;13.63;7.10;;;;;;;14.96;100.00;100339.72;4966133;28;20202;-71
2023/10/13 03:03:55;;;;;;;14.43;6.90;;;;;;;15.02;100.00;100337.03;4972816;28;20209;-71
2023/10/13 03:06:24;;;;;;;13.47;6.60;;;;;;;15.00;100.00;100329.03;4972109;28;20222;-71
2023/10/13 03:08:56;;;;;;;11.93;6.50;;;;;;;14.94;100.00;100330.84;4969317;28;20198;-71
2023/10/13 03:11:24;;;;;;;13.63;6.47;;;;;;;14.92;100.00;100332.66;4969534;28;20276;-71
2023/10/13 03:13:52;;;;;;;14.17;6.30;;;;;;;14.88;100.00;100337.09;4971576;28;20296;-71
2023/10/13 03:16:22;;;;;;;10.70;6.40;;;;;;;14.81;100.00;100340.72;4972061;28;20705;-72
2023/10/13 03:18:53;;;;;;;11.90;6.80;;;;;;;14.86;100.00;100346.00;4971397;28;20217;-72
2023/10/13 03:21:31;;;;;;;10.93;6.13;;;;;;;14.82;100.00;100336.25;4971709;28;20205;-72
2023/10/13 03:24:06;;;;;;;11.67;5.93;;;;;;;14.71;100.00;100330.94;4972629;28;20212;-72
2023/10/13 03:26:37;;;;;;;11.00;6.27;;;;;;;14.63;100.00;100323.00;4970789;28;20225;-72
2023/10/13 03:29:08;;;;;;;13.97;6.67;;;;;;;14.62;100.00;100315.88;4966866;28;20198;-72
2023/10/13 03:31:37;;;;;;;11.70;6.87;;;;;;;14.71;100.00;100312.28;4971478;28;20220;-71
2023/10/13 03:34:09;;;;;;;14.13;6.87;;;;;;;14.68;100.00;100313.19;4970888;28;20201;-71
2023/10/13 03:37:17;;;;;;;13.50;5.53;;;;;;;14.66;100.00;100317.66;4965572;28;20229;-71
2023/10/13 03:39:29;;;;;;;11.70;5.53;;;;;;;14.61;100.00;100310.56;4971199;28;20205;-71
2023/10/13 03:41:59;;;;;;;14.90;6.67;;;;;;;14.64;100.00;100308.78;4971844;28;20274;-71
2023/10/13 03:44:30;;;;;;;11.57;6.60;;;;;;;14.66;100.00;100299.00;4970484;28;20244;-71
2023/10/13 03:46:57;;;;;;;11.57;6.40;;;;;;;14.65;100.00;100307.00;4966257;28;20418;-71
2023/10/13 03:49:25;;;;;;;9.00;6.07;;;;;;;14.71;100.00;100305.19;4971167;28;20658;-71
2023/10/13 03:51:54;;;;;;;12.07;6.67;;;;;;;14.70;100.00;100313.19;4971385;28;20710;-71
2023/10/13 03:54:20;;;;;;;12.90;6.40;;;;;;;14.76;100.00;100320.25;4968719;28;20212;-71
2023/10/13 03:56:52;;;;;;;14.70;6.87;;;;;;;14.73;100.00;100313.16;4971331;28;20240;-71
2023/10/13 03:59:18;;;;;;;12.20;6.60;;;;;;;14.67;100.00;100305.19;4971578;28;20319;-71
2023/10/13 04:01:58;;;;;;;10.20;5.97;;;;;;;14.60;100.00;100308.78;4969482;28;20721;-71
2023/10/13 04:14:19;;;;;;;10.67;6.20;;;;;;;14.49;100.00;100289.31;4967727;28;20578;-71
2023/10/13 04:15:17;;;;;;;8.60;5.60;;;;;;;14.52;100.00;100291.97;4975668;28;20249;-71
2023/10/13 04:17:45;;;;;;;8.37;5.80;;;;;;;14.52;100.00;100290.19;4970598;28;20648;-72
2023/10/13 04:20:12;;;;;;;9.97;5.47;;;;;;;14.56;100.00;100286.59;4969008;28;20641;-71
2023/10/13 04:31:24;;;;;;;15.03;6.30;;;;;;;14.68;100.00;100273.22;4970703;28;20228;-72
2023/10/13 04:33:51;;;;;;;12.70;6.67;;;;;;;14.64;100.00;100282.13;4968845;28;21332;-72
2023/10/13 04:38:56;;;;;;;11.37;6.03;;;;;;;14.60;100.00;100256.38;4970755;28;20217;-71
2023/10/13 04:41:31;;;;;;;11.43;5.67;;;;;;;14.59;100.00;100251.94;4970600;28;20201;-71
2023/10/13 04:52:27;;;;;;;11.27;6.23;;;;;;;14.76;100.00;100245.63;4969588;28;20209;-72
2023/10/13 06:30:09;;;;;;;11.80;6.77;;;;;;;15.23;100.00;100230.19;4973068;28;20201;-71
2023/10/13 06:32:39;;;;;;;13.80;8.23;;;;;;;15.33;100.00;100241.66;4971895;28;20221;-71
2023/10/13 06:35:07;;;;;;;16.67;7.63;;;;;;;15.41;100.00;100234.47;4972905;28;20312;-71
2023/10/13 06:37:34;;;;;;;11.87;6.70;;;;;;;15.54;100.00;100238.78;4972948;28;20284;-71
2023/10/13 06:40:07;;;;;;;15.13;7.50;;;;;;;15.75;100.00;100248.44;4971083;28;20301;-71
2023/10/13 06:42:42;;;;;;;12.87;7.07;;;;;;;15.85;100.00;100244.75;4970566;28;20308;-71
2023/10/13 06:45:09;;;;;;;13.37;7.83;;;;;;;15.99;100.00;100252.63;4967314;28;20311;-71
2023/10/13 06:47:45;;;;;;;16.10;7.73;;;;;;;16.06;100.00;100241.00;4972443;28;20209;-72
2023/10/13 06:50:15;;;;;;;15.07;7.47;;;;;;;16.08;100.00;100244.53;4970728;28;20708;-71
2023/10/13 06:52:43;;;;;;;15.10;7.23;;;;;;;16.14;100.00;100230.22;4972660;28;20233;-71
2023/10/13 06:55:23;;;;;;;15.43;7.43;;;;;;;16.24;100.00;100231.84;4966725;28;20268;-71
2023/10/13 06:57:51;;;;;;;12.27;6.73;;;;;;;16.37;100.00;100240.59;4972344;28;20201;-71
2023/10/13 07:00:29;;;;;;;14.90;7.13;;;;;;;16.49;100.00;100229.78;4971254;28;20201;-71
2023/10/13 07:05:41;;;;;;;13.77;7.20;;;;;;;16.62;100.00;100244.72;4972259;28;20244;-71
2023/10/13 07:08:13;;;;;;;12.23;6.90;;;;;;;16.72;100.00;100241.06;4970948;28;20201;-71
2023/10/13 07:11:05;;;;;;;14.20;7.10;;;;;;;16.76;100.00;100234.75;4970454;28;20219;-71
2023/10/13 07:13:36;;;;;;;12.70;7.07;;;;;;;16.91;100.00;100226.53;4972175;28;20209;-71
2023/10/13 07:16:12;;;;;;;12.97;5.70;;;;;;;17.05;100.00;100225.41;4972001;28;20284;-72
2023/10/13 07:18:54;;;;;;;11.27;6.73;;;;;;;17.31;100.00;100233.03;4970218;28;20284;-72
2023/10/13 07:21:30;;;;;;;13.25;6.75;;;;;;;17.42;100.00;100233.75;4972294;28;20198;-72
2023/10/13 07:24:01;;;;;;;15.97;7.10;;;;;;;17.51;100.00;100241.59;4970517;28;20203;-72
2023/10/13 07:26:42;;;;;;;11.98;6.22;;;;;;;17.62;100.00;100241.44;4970043;28;20225;-71
2023/10/13 07:29:09;;;;;;;12.55;6.82;;;;;;;17.77;100.00;100246.53;4971625;28;20260;-71
2023/10/13 07:31:37;;;;;;;15.47;6.77;;;;;;;17.84;100.00;100243.72;4971684;28;20264;-72
2023/10/13 07:34:24;;;;;;;10.57;6.63;;;;;;;18.00;100.00;100238.94;4971163;28;20216;-72
2023/10/13 07:36:53;;;;;;;11.27;5.93;;;;;;;18.15;100.00;100244.03;4969377;28;20212;-71
2023/10/13 07:39:23;;;;;;;11.23;6.78;;;;;;;18.31;100.00;100239.22;4971465;28;20237;-71
2023/10/13 07:41:53;;;;;;;15.65;6.28;;;;;;;18.56;100.00;100231.56;4968903;28;20208;-71
2023/10/13 07:44:28;;;;;;;12.55;6.00;;;;;;;18.78;100.00;100221.25;4971579;28;20201;-71
2023/10/13 07:46:58;;;;;;;12.48;6.40;;;;;;;18.96;100.00;100218.16;4969352;28;20201;-71
2023/10/13 07:49:32;;;;;;;10.90;5.82;;;;;;;18.96;100.00;100218.16;4971587;28;20198;-72
2023/10/13 07:54:55;;;;;;;13.48;6.75;;;;;;;19.20;100.00;100213.97;4971320;28;20206;-71
2023/10/13 07:57:29;;;;;;;13.07;6.78;;;;;;;19.25;100.00;100220.16;4971624;28;20244;-72
2023/10/13 08:00:08;;;;;;;15.88;5.82;;;;;;;19.10;100.00;100216.00;4968645;28;20222;-72
2023/10/13 08:02:51;;;;;;;13.25;6.38;;;;;;;19.16;100.00;100214.97;4971161;28;20205;-71
2023/10/13 08:05:39;;;;;;;18.48;6.75;;;;;;;19.49;100.00;100207.88;4971390;28;20221;-72
2023/10/13 08:08:14;;;;;;;12.07;5.57;;;;;;;19.79;100.00;100216.09;4964175;28;20584;-71
2023/10/13 08:10:45;;;;;;;12.35;6.00;;;;;;;19.81;100.00;100216.94;4971072;28;20358;-72
2023/10/13 08:13:12;;;;;;;11.73;5.40;;;;;;;19.93;100.00;100214.78;4971195;28;20689;-72
2023/10/13 08:15:48;;;;;;;14.50;6.13;;;;;;;19.99;100.00;100211.91;4968860;28;20225;-72
2023/10/13 08:18:29;;;;;;;11.05;5.20;;;;;;;19.91;100.00;100216.63;4971065;28;20216;-72
2023/10/13 08:21:02;;;;;;;11.27;5.85;;;;;;;19.83;100.00;100204.34;4968280;28;20212;-72
2023/10/13 08:39:58;;;;;;;11.05;5.32;;;;;;;20.54;100.00;100182.59;4970464;28;20224;-72
2023/10/13 08:45:58;;;;;;;10.40;5.35;;;;;;;20.31;100.00;100186.78;4970322;28;20689;-72
2023/10/13 08:53:44;;;;;;;10.00;4.97;;;;;;;21.03;100.00;100157.66;4970754;28;20212;-72
2023/10/13 08:56:15;;;;;;;10.15;4.65;;;;;;;21.27;100.00;100153.31;4972529;28;20220;-72
2023/10/13 09:04:21;;;;;;;11.85;5.72;;;;;;;21.82;100.00;100132.47;4968788;28;20297;-72
2023/10/13 09:09:58;;;;;;;11.90;5.47;;;;;;;21.57;100.00;100148.66;4966951;28;20708;-72
2023/10/13 09:15:06;;;;;;;10.40;5.47;;;;;;;20.79;100.00;100129.72;4967210;28;20299;-72
2023/10/13 09:17:42;;;;;;;12.57;5.70;;;;;;;20.49;100.00;100136.09;4968686;28;20209;-72
2023/10/13 09:20:32;;;;;;;12.30;5.00;;;;;;;20.67;100.00;100129.25;4973468;28;20228;-72
2023/10/13 09:25:36;;;;;;;13.07;5.55;;;;;;;20.81;100.00;100124.28;4970545;28;20308;-72
2023/10/13 09:28:21;;;;;;;14.00;6.13;;;;;;;21.08;100.00;100134.16;4971181;28;20228;-72
2023/10/13 09:30:52;;;;;;;10.15;5.10;;;;;;;21.21;100.00;100140.91;4973722;28;20251;-72
2023/10/13 09:33:35;;;;;;;12.27;5.57;;;;;;;21.27;100.00;100137.16;4971920;28;20592;-72
2023/10/13 09:36:06;;;;;;;12.25;5.40;;;;;;;21.40;100.00;100126.81;4970957;28;20285;-72
2023/10/13 09:38:40;;;;;;;8.45;4.85;;;;;;;21.50;100.00;100125.56;4973307;28;20581;-72
2023/10/13 09:41:25;;;;;;;16.50;5.43;;;;;;;21.55;100.00;100116.38;4973812;28;20202;-72
2023/10/13 09:43:52;;;;;;;8.60;4.70;;;;;;;21.68;100.00;100113.25;4971643;28;20224;-72
2023/10/13 09:46:23;;;;;;;12.27;5.50;;;;;;;21.73;100.00;100117.53;4974539;28;20240;-72
2023/10/13 09:49:04;;;;;;;13.50;5.63;;;;;;;21.65;100.00;100111.53;4973512;28;20678;-72
2023/10/13 09:51:34;;;;;;;12.02;5.60;;;;;;;21.62;100.00;100121.56;4967727;28;20284;-72
2023/10/13 09:54:16;;;;;;;10.10;5.15;;;;;;;21.74;100.00;100116.59;4973861;28;20281;-72
2023/10/13 09:57:12;;;;;;;9.98;5.20;;;;;;;21.88;100.00;100114.25;4966203;28;20206;-72
2023/10/13 09:59:52;;;;;;;11.13;5.30;;;;;;;21.92;100.00;100119.53;4973137;28;20221;-72
2023/10/13 10:02:25;;;;;;;8.90;5.65;;;;;;;21.79;100.00;100120.00;4970997;28;20205;-73
2023/10/13 10:05:12;;;;;;;10.18;5.47;;;;;;;21.72;100.00;100121.16;4973693;28;20225;-72
2023/10/13 10:07:43;;;;;;;9.57;4.75;;;;;;;22.00;100.00;100112.91;4970754;28;20201;-72
2023/10/13 10:10:11;;;;;;;13.35;6.07;;;;;;;22.30;96.03;100110.00;4970805;28;20651;-72
2023/10/13 10:12:50;;;;;;;15.75;6.45;;;;;;;22.22;97.56;100104.91;4973382;28;20205;-72
2023/10/13 10:15:43;;;;;;;10.88;5.65;;;;;;;22.30;96.11;100099.22;4973200;28;20247;-72
2023/10/13 10:18:27;;;;;;;9.80;5.03;;;;;;;22.22;100.00;100106.75;4969557;28;20212;-73
2023/10/13 10:21:11;;;;;;;10.82;5.47;;;;;;;21.87;100.00;100101.72;4972653;28;20704;-72
2023/10/13 10:23:43;;;;;;;12.10;5.65;;;;;;;21.74;100.00;100110.31;4969025;28;20202;-73
2023/10/13 10:26:13;;;;;;;13.10;5.70;;;;;;;21.96;100.00;100097.78;4968709;28;20225;-73
2023/10/13 10:28:42;;;;;;;7.85;5.18;;;;;;;22.18;100.00;100092.50;4972837;28;20205;-73
2023/10/13 10:31:12;;;;;;;9.05;4.95;;;;;;;22.36;99.35;100082.78;4972043;28;20685;-73
2023/10/13 10:33:40;;;;;;;7.35;4.72;;;;;;;22.64;98.95;100087.97;4971848;28;20771;-73
2023/10/13 10:36:16;;;;;;;9.38;5.07;;;;;;;22.94;95.96;100081.31;4969770;28;20307;-70
2023/10/13 10:38:54;;;;;;;13.50;5.70;;;;;;;23.40;91.64;100077.50;4970956;28;20215;-71
2023/10/13 10:41:30;;;;;;;8.82;5.60;;;;;;;23.92;83.16;100071.59;4972759;28;20201;-70
2023/10/13 10:43:57;;;;;;;8.02;4.97;;;;;;;24.31;79.45;100067.03;4969613;28;20232;-71
2023/10/13 10:46:28;;;;;;;7.90;4.70;;;;;;;24.69;73.47;100066.97;4972252;28;20677;-70
2023/10/13 10:49:00;;;;;;;9.93;5.20;;;;;;;25.14;72.25;100052.97;4972007;28;20236;-70
2023/10/13 10:51:31;;;;;;;9.55;5.03;;;;;;;25.42;68.61;100068.66;4969154;28;20213;-71
2023/10/13 10:54:11;;;;;;;14.48;5.43;;;;;;;25.56;68.11;100063.38;4968433;28;20345;-70
2023/10/13 10:56:37;;;;;;;11.43;5.20;;;;;;;25.51;67.28;100048.31;4972181;28;20229;-71
2023/10/13 10:59:15;;;;;;;10.85;5.68;;;;;;;25.43;68.30;100040.59;4970637;28;20285;-71
2023/10/13 11:01:52;;;;;;;7.78;5.63;;;;;;;25.29;68.86;100035.03;4969528;28;20204;-70
2023/10/13 11:06:56;;;;;;;9.48;4.85;;;;;;;26.08;66.50;100017.16;4971887;28;20698;-70
2023/10/13 11:10:31;;;;;;;9.80;5.20;;;;;;;26.33;64.67;100023.88;4972234;28;20621;-70
2023/10/13 11:12:26;;;;;;;11.05;5.13;;;;;;;26.39;64.74;100010.84;4971447;28;20201;-71
2023/10/13 11:15:15;;;;;;;7.38;4.53;;;;;;;26.36;63.93;100007.44;4971826;28;20253;-71
2023/10/13 11:17:50;;;;;;;9.57;5.10;;;;;;;26.41;64.89;100010.78;4971903;28;20201;-71
2023/10/13 11:20:25;;;;;;;10.00;5.22;;;;;;;26.45;62.33;100001.50;4969513;28;20300;-71
2023/10/13 11:22:52;;;;;;;8.30;4.85;;;;;;;26.33;63.96;99994.03;4971975;28;20208;-70
2023/10/13 11:25:29;;;;;;;8.30;5.00;;;;;;;26.44;64.36;99984.34;4971443;28;20218;-71
2023/10/13 11:28:05;;;;;;;10.13;4.65;;;;;;;26.57;63.21;99984.47;4970823;28;20293;-71
2023/10/13 11:33:07;;;;;;;10.27;5.53;;;;;;;25.95;63.79;99982.63;4967670;28;20206;-71
2023/10/13 11:38:27;;;;;;;11.63;5.47;;;;;;;26.00;63.12;99972.38;4969213;28;20654;-70
2023/10/13 11:48:38;;;;;;;8.77;4.45;;;;;;;25.35;66.65;99956.09;4968415;28;20240;-71
2023/10/13 11:51:17;;;;;;;9.93;4.70;;;;;;;25.03;66.36;99959.63;4971404;28;20202;-72
2023/10/13 11:53:45;;;;;;;9.60;4.60;;;;;;;24.70;67.07;99957.69;4967421;28;20236;-72
2023/10/13 11:56:11;;;;;;;10.48;5.05;;;;;;;24.96;67.30;99961.78;4971626;28;20226;-71
2023/10/13 11:58:39;;;;;;;8.02;5.20;;;;;;;25.18;67.62;99956.09;4970999;28;20212;-73
2023/10/13 12:11:47;;;;;;;8.23;4.32;;;;;;;25.04;65.08;99946.00;4970284;28;20388;-73
2023/10/13 12:14:37;;;;;;;9.27;4.72;;;;;;;25.11;65.29;99942.00;4971006;28;20223;-73
2023/10/13 12:17:04;;;;;;;10.73;4.38;;;;;;;24.98;62.72;99949.91;4966620;28;20554;-73
2023/10/13 12:19:31;;;;;;;8.05;4.43;;;;;;;25.01;62.24;99948.00;4969103;28;20228;-73
2023/10/13 12:22:04;;;;;;;10.25;5.10;;;;;;;24.99;61.79;99948.09;4970728;28;20647;-73
2023/10/13 12:24:40;;;;;;;7.93;4.32;;;;;;;25.03;61.38;99938.84;4970642;28;20358;-73
2023/10/13 12:27:18;;;;;;;17.08;6.00;;;;;;;25.13;61.07;99933.78;4964055;28;20213;-73
2023/10/13 12:29:46;;;;;;;9.68;4.70;;;;;;;25.22;61.11;99927.91;4970311;28;20674;-73
2023/10/13 12:32:14;;;;;;;7.00;4.55;;;;;;;25.35;61.30;99923.56;4971028;28;20253;-73
2023/10/13 12:37:38;;;;;;;10.93;5.25;;;;;;;25.55;59.12;99922.44;4967614;28;20663;-74
2023/10/13 12:51:20;;;;;;;8.75;4.80;;;;;;;25.72;59.84;99899.84;4966849;28;20692;-72
2023/10/13 12:53:51;;;;;;;9.70;4.78;;;;;;;25.78;58.34;99889.50;4967967;28;20288;-71
2023/10/13 12:56:25;;;;;;;10.90;4.43;;;;;;;25.78;57.54;99885.94;4970169;28;20221;-71
2023/10/13 12:58:52;;;;;;;8.68;4.70;;;;;;;25.80;56.93;99884.88;4969122;28;20281;-71
2023/10/13 13:01:20;;;;;;;8.60;4.90;;;;;;;26.05;56.21;99888.91;4967232;28;20224;-72
2023/10/13 13:03:50;;;;;;;7.32;3.60;;;;;;;26.08;55.55;99886.88;4970570;28;20233;-73
2023/10/13 13:06:26;;;;;;;9.25;4.35;;;;;;;26.15;54.46;99876.53;4970423;28;20224;-72
2023/10/13 13:08:56;;;;;;;6.88;4.25;;;;;;;26.16;53.75;99873.72;4970614;28;20460;-72
2023/10/13 13:11:23;;;;;;;8.18;4.20;;;;;;;25.98;54.01;99879.34;4970029;28;20202;-73
2023/10/13 13:13:52;;;;;;;7.05;4.35;;;;;;;26.25;53.96;99872.28;4971654;28;20232;-72
2023/10/13 13:16:23;;;;;;;6.88;3.58;;;;;;;26.50;53.36;99867.19;4970491;28;20221;-72
2023/10/13 13:18:50;;;;;;;10.00;4.13;;;;;;;26.49;52.45;99860.00;4967864;28;20653;-73
2023/10/13 13:21:22;;;;;;;7.85;4.22;;;;;;;26.84;52.39;99865.13;4969849;28;20221;-72
2023/10/13 13:23:55;;;;;;;6.80;4.15;;;;;;;27.13;51.54;99861.47;4970397;28;20210;-72
2023/10/13 13:26:22;;;;;;;6.53;3.97;;;;;;;27.53;49.42;99856.19;4967486;28;20229;-73
2023/10/13 13:28:51;;;;;;;7.53;4.00;;;;;;;27.87;48.70;99854.88;4970016;28;20204;-73
2023/10/13 13:31:19;;;;;;;9.90;4.43;;;;;;;28.02;48.66;99845.72;4970032;28;20292;-72
2023/10/13 13:33:45;;;;;;;7.78;4.72;;;;;;;28.12;48.12;99851.41;4968523;28;20220;-73
2023/10/13 13:36:13;;;;;;;7.68;3.88;;;;;;;28.03;48.33;99843.88;4965312;28;20769;-72
2023/10/13 13:38:46;;;;;;;9.95;4.35;;;;;;;28.17;48.04;99840.19;4969867;28;20209;-72
2023/10/13 13:41:16;;;;;;;8.07;4.30;;;;;;;27.65;48.56;99840.97;4970053;28;20225;-72
2023/10/13 13:46:17;;;;;;;8.70;4.47;;;;;;;27.82;48.10;99834.41;4969752;28;20229;-72
2023/10/13 13:48:47;;;;;;;6.63;3.88;;;;;;;27.90;48.90;99822.00;4969720;28;20225;-73
2023/10/13 13:51:14;;;;;;;6.35;4.13;;;;;;;27.94;48.64;99811.78;4968573;28;20198;-72
2023/10/13 13:53:45;;;;;;;15.02;5.07;;;;;;;27.73;48.94;99804.09;4969068;28;20209;-73
2023/10/13 13:56:15;;;;;;;9.43;4.00;;;;;;;27.47;49.20;99803.06;4969932;28;20222;-72
2023/10/13 13:58:43;;;;;;;7.38;4.05;;;;;;;27.35;50.19;99793.00;4969855;28;20208;-73
2023/10/13 14:01:18;;;;;;;6.60;4.30;;;;;;;27.31;50.37;99796.03;4968389;28;20253;-73
2023/10/13 14:03:46;;;;;;;7.78;4.68;;;;;;;26.98;50.03;99790.88;4969822;28;20593;-73
2023/10/13 14:06:18;;;;;;;7.78;4.13;;;;;;;26.73;51.59;99780.66;4971564;28;20354;-72
2023/10/13 14:08:48;;;;;;;6.68;4.25;;;;;;;26.51;52.22;99778.44;4972866;28;20280;-73
2023/10/13 14:14:04;;;;;;;7.13;3.95;;;;;;;26.48;54.25;99781.34;4973870;28;20617;-73
2023/10/13 14:16:33;;;;;;;8.75;4.50;;;;;;;26.46;53.91;99770.56;4973926;28;20276;-73
2023/10/13 14:19:07;;;;;;;9.90;4.65;;;;;;;26.48;54.49;99765.91;4969058;28;20205;-72
2023/10/13 14:21:34;;;;;;;8.65;4.20;;;;;;;26.52;53.61;99762.03;4970344;28;20225;-73
2023/10/13 14:24:02;;;;;;;6.57;4.28;;;;;;;26.60;53.44;99757.97;4972903;28;20314;-72
2023/10/13 14:26:29;;;;;;;10.40;4.78;;;;;;;26.62;53.14;99751.47;4972951;28;20256;-73
2023/10/13 14:29:01;;;;;;;9.75;4.43;;;;;;;26.55;52.71;99758.25;4970953;28;20204;-72
2023/10/13 14:31:32;;;;;;;8.85;4.32;;;;;;;26.48;53.30;99763.19;4971550;28;20205;-73
2023/10/13 14:33:58;;;;;;;7.38;4.30;;;;;;;26.54;53.61;99760.09;4972674;28;20202;-73
2023/10/13 14:36:28;;;;;;;7.78;4.60;;;;;;;26.44;50.34;99760.78;4972358;28;20658;-73
2023/10/13 14:38:56;;;;;;;6.95;4.13;;;;;;;26.15;52.23;99755.25;4971504;28;20611;-73
2023/10/13 14:41:22;;;;;;;12.55;4.80;;;;;;;25.99;53.27;99750.81;4972719;28;20583;-73
2023/10/13 14:43:48;;;;;;;8.25;4.20;;;;;;;26.05;53.27;99745.91;4971071;28;20288;-72
2023/10/13 14:46:22;;;;;;;7.57;3.90;;;;;;;26.05;53.21;99742.34;4971323;28;20729;-73
2023/10/13 14:48:52;;;;;;;11.75;4.70;;;;;;;26.08;53.72;99743.03;4971839;28;20211;-72
2023/10/13 14:51:20;;;;;;;6.70;3.95;;;;;;;26.07;53.75;99743.13;4972416;28;20200;-72
2023/10/13 14:53:47;;;;;;;9.52;3.85;;;;;;;26.13;53.40;99734.59;4972208;28;20208;-72
2023/10/13 14:56:16;;;;;;;8.70;4.20;;;;;;;26.12;54.03;99728.28;4970036;28;20228;-72
2023/10/13 14:58:44;;;;;;;9.70;4.65;;;;;;;26.05;54.47;99728.75;4971738;28;20681;-73
2023/10/13 15:01:15;;;;;;;7.40;4.00;;;;;;;25.87;54.58;99722.59;4971636;28;20328;-72
2023/10/13 15:03:46;;;;;;;8.90;4.97;;;;;;;25.55;55.46;99717.22;4972128;28;20209;-72
2023/10/13 15:06:24;;;;;;;7.78;4.32;;;;;;;25.29;56.94;99713.31;4966286;28;20729;-72
2023/10/13 15:08:54;;;;;;;10.65;5.13;;;;;;;25.05;55.56;99711.13;4971713;28;20232;-72
2023/10/13 15:11:26;;;;;;;11.82;4.68;;;;;;;24.87;55.01;99696.78;4972129;28;20205;-72
2023/10/13 15:13:53;;;;;;;6.63;3.67;;;;;;;24.80;53.19;99706.19;4970209;28;20210;-72
2023/10/13 15:16:24;;;;;;;7.72;3.42;;;;;;;24.77;53.47;99701.81;4971961;28;20228;-72
2023/10/13 15:18:52;;;;;;;7.72;4.03;;;;;;;24.77;53.19;99695.53;4971376;28;20209;-72
2023/10/13 15:21:21;;;;;;;8.50;3.67;;;;;;;24.74;52.92;99691.16;4972066;28;20229;-72
2023/10/13 15:23:47;;;;;;;8.57;3.67;;;;;;;24.75;52.75;99690.19;4964982;28;20206;-72